createdAt,value
2022-09-20T00:01:28.433Z,10.94
2022-09-20T00:03:57.954Z,10.78
2022-09-20T00:06:32.075Z,10.63
2022-09-20T00:09:01.432Z,10.32
2022-09-20T00:11:31.489Z,10.33
2022-09-20T00:14:00.575Z,10.19
2022-09-20T00:16:30.454Z,10.07
2022-09-20T00:18:59.282Z,10.04
2022-09-20T00:21:29.034Z,10.08
2022-09-20T00:23:57.672Z,10.06
2022-09-20T00:26:26.382Z,9.88
2022-09-20T00:28:53.854Z,10.16
2022-09-20T00:31:21.007Z,10.15
2022-09-20T00:34:06.514Z,10.32
2022-09-20T00:36:33.542Z,10.20
2022-09-20T00:39:02.268Z,10.10
2022-09-20T00:41:31.962Z,10.12
2022-09-20T00:44:00.489Z,10.26
2022-09-20T00:46:44.849Z,10.12
2022-09-20T00:49:19.446Z,10.14
2022-09-20T00:51:51.687Z,10.15
2022-09-20T00:54:22.516Z,10.22
2022-09-20T00:56:49.804Z,10.25
2022-09-20T00:59:39.478Z,10.37
2022-09-20T01:02:14.097Z,10.44
2022-09-20T01:04:42.983Z,10.48
2022-09-20T01:07:13.911Z,10.42
2022-09-20T01:09:41.018Z,10.36
2022-09-20T01:12:13.836Z,10.41
2022-09-20T01:14:43.735Z,10.36
2022-09-20T01:17:12.512Z,10.38
2022-09-20T01:20:24.540Z,10.35
2022-09-20T01:23:27.832Z,10.35
2022-09-20T01:26:30.181Z,10.33
2022-09-20T01:29:50.220Z,10.49
2022-09-20T01:32:22.837Z,10.20
2022-09-20T01:34:56.751Z,10.19
2022-09-20T01:37:32.325Z,9.97
2022-09-20T01:40:39.920Z,9.93
2022-09-20T01:43:53.525Z,9.86
2022-09-20T01:46:34.191Z,10.06
2022-09-20T01:49:35.342Z,9.86
2022-09-20T01:52:57.901Z,9.88
2022-09-20T01:56:09.573Z,9.79
2022-09-20T01:59:24.186Z,9.63
2022-09-20T02:02:33.824Z,9.36
2022-09-20T02:05:48.572Z,9.48
2022-09-20T02:09:08.243Z,9.42
2022-09-20T02:28:16.177Z,9.31
2022-09-20T02:31:23.142Z,9.10
2022-09-20T02:34:34.205Z,9.09
2022-09-20T02:37:36.350Z,8.89
2022-09-20T02:40:41.810Z,8.79
2022-09-20T02:43:23.521Z,8.81
2022-09-20T02:46:38.264Z,9.03
2022-09-20T02:50:06.888Z,8.98
2022-09-20T02:53:01.421Z,8.91
2022-09-20T02:55:56.394Z,8.90
2022-09-20T02:58:42.901Z,8.87
2022-09-20T03:01:46.585Z,8.74
2022-09-20T03:04:25.777Z,8.83
2022-09-20T03:07:31.383Z,8.90
2022-09-20T03:10:40.976Z,8.72
2022-09-20T03:13:43.045Z,8.86
2022-09-20T03:16:52.682Z,8.78
2022-09-20T03:20:14.241Z,8.66
2022-09-20T03:23:05.389Z,8.66
2022-09-20T03:26:14.894Z,8.75
2022-09-20T03:29:05.772Z,8.68
2022-09-20T04:27:47.254Z,8.71
2022-09-20T04:30:25.167Z,8.49
2022-09-20T04:33:01.204Z,8.31
2022-09-20T04:36:30.166Z,8.24
2022-09-20T04:39:34.430Z,8.29
2022-09-20T04:42:46.756Z,8.39
2022-09-20T04:45:30.747Z,8.49
2022-09-20T04:48:46.645Z,8.57
2022-09-20T04:52:05.941Z,8.65
2022-09-20T04:55:14.755Z,8.78
2022-09-20T04:58:33.979Z,8.81
2022-09-20T05:41:06.532Z,9.54
2022-09-20T05:44:01.489Z,9.76
2022-09-20T05:46:54.270Z,9.84
2022-09-20T05:50:32.841Z,9.77
2022-09-20T05:53:25.154Z,9.92
2022-09-20T05:56:18.106Z,10.08
2022-09-20T05:59:21.691Z,10.07
2022-09-20T06:02:43.795Z,10.14
2022-09-20T06:05:48.270Z,10.26
2022-09-20T06:09:01.053Z,10.21
2022-09-20T06:12:01.080Z,10.31
2022-09-20T06:14:54.367Z,10.32
2022-09-20T06:17:49.790Z,10.55
2022-09-20T06:20:56.541Z,10.82
2022-09-20T06:23:23.724Z,10.82
2022-09-20T06:25:57.499Z,10.70
2022-09-20T06:28:39.454Z,10.56
2022-09-20T06:31:10.459Z,10.57
2022-09-20T06:33:45.203Z,10.58
2022-09-20T06:36:45.557Z,10.61
2022-09-20T06:40:13.071Z,10.62
2022-09-20T06:42:40.108Z,10.85
2022-09-20T06:45:07.584Z,10.87
2022-09-20T06:47:38.528Z,10.90
2022-09-20T06:50:06.517Z,11.06
2022-09-20T06:52:34.797Z,11.08
2022-09-20T06:55:09.076Z,11.18
2022-09-20T06:57:40.273Z,11.09
2022-09-20T07:00:11.424Z,11.14
2022-09-20T07:02:38.783Z,11.34
2022-09-20T07:05:07.816Z,11.69
2022-09-20T07:07:34.844Z,11.79
2022-09-20T07:10:02.039Z,12.00
2022-09-20T07:12:33.773Z,11.86
2022-09-20T07:15:00.772Z,12.00
2022-09-20T07:17:27.751Z,12.02
2022-09-20T07:19:56.794Z,12.01
2022-09-20T07:22:24.014Z,11.90
2022-09-20T07:24:51.402Z,11.88
2022-09-20T07:27:18.449Z,11.90
2022-09-20T07:29:46.386Z,12.09
2022-09-20T07:32:13.534Z,12.18
2022-09-20T07:34:40.749Z,12.25
2022-09-20T07:37:08.145Z,12.24
2022-09-20T07:39:35.243Z,12.11
2022-09-20T07:42:06.425Z,12.05
2022-09-20T07:44:33.290Z,12.19
2022-09-20T07:47:00.970Z,12.33
2022-09-20T07:49:32.208Z,12.36
2022-09-20T07:51:59.394Z,12.59
2022-09-20T07:54:27.825Z,12.69
2022-09-20T07:56:54.869Z,12.80
2022-09-20T07:59:22.147Z,13.02
2022-09-20T08:01:49.299Z,13.12
2022-09-20T08:04:16.287Z,13.14
2022-09-20T08:06:45.023Z,13.18
2022-09-20T08:09:13.670Z,12.99
2022-09-20T08:11:43.062Z,12.74
2022-09-20T08:14:14.779Z,13.00
2022-09-20T08:16:48.043Z,13.17
2022-09-20T08:19:23.545Z,13.43
2022-09-20T08:21:52.881Z,13.73
2022-09-20T08:24:20.235Z,13.72
2022-09-20T08:26:48.525Z,13.57
2022-09-20T08:29:16.029Z,13.67
2022-09-20T08:31:43.303Z,14.09
2022-09-20T08:34:12.857Z,14.22
2022-09-20T08:36:42.662Z,14.65
2022-09-20T08:42:23.055Z,15.02
2022-09-20T08:44:58.930Z,14.89
2022-09-20T08:47:29.990Z,14.65
2022-09-20T08:49:59.369Z,14.81
2022-09-20T08:52:37.110Z,14.75
2022-09-20T08:55:20.090Z,14.56
2022-09-20T08:57:56.373Z,14.68
2022-09-20T09:00:26.488Z,14.91
2022-09-20T09:02:59.611Z,15.26
2022-09-20T09:05:53.476Z,15.30
2022-09-20T09:08:31.127Z,15.28
2022-09-20T09:12:00.391Z,15.82
2022-09-20T09:14:48.943Z,15.56
2022-09-20T09:17:18.132Z,15.52
2022-09-20T09:19:53.980Z,15.48
2022-09-20T09:22:25.103Z,15.33
2022-09-20T09:25:22.367Z,15.44
2022-09-20T09:28:13.803Z,15.84
2022-09-20T09:30:47.179Z,16.04
2022-09-20T09:33:28.933Z,15.78
2022-09-20T09:36:15.257Z,15.33
2022-09-20T09:38:47.783Z,15.18
2022-09-20T09:41:33.416Z,15.49
2022-09-20T09:44:11.158Z,15.57
2022-09-20T09:46:40.324Z,15.93
2022-09-20T09:49:16.955Z,16.06
2022-09-20T09:52:07.320Z,16.38
2022-09-20T09:54:47.886Z,16.57
2022-09-20T09:57:48.880Z,16.37
2022-09-20T10:00:22.618Z,16.32
2022-09-20T10:03:23.594Z,16.39
2022-09-20T10:06:43.886Z,16.10
2022-09-20T10:09:53.830Z,16.05
2022-09-20T10:12:46.374Z,16.22
2022-09-20T10:15:24.333Z,16.50
2022-09-20T10:18:42.520Z,16.20
2022-09-20T10:21:49.059Z,16.58
2022-09-20T10:24:51.345Z,16.86
2022-09-20T10:27:48.802Z,16.86
2022-09-20T10:30:21.142Z,17.06
2022-09-20T10:33:25.997Z,17.44
2022-09-20T10:36:25.047Z,17.00
2022-09-20T10:39:17.834Z,16.88
2022-09-20T10:48:49.150Z,17.84
2022-09-20T10:51:40.817Z,18.38
2022-09-20T10:54:49.202Z,18.56
2022-09-20T10:58:01.614Z,18.37
2022-09-20T11:01:00.980Z,18.24
2022-09-20T11:04:32.567Z,18.42
2022-09-20T11:07:32.644Z,18.72
2022-09-20T11:10:05.669Z,18.55
2022-09-20T11:12:51.583Z,18.15
2022-09-20T11:15:43.593Z,18.41
2022-09-20T11:18:23.288Z,18.37
2022-09-20T11:21:00.744Z,17.94
2022-09-20T11:23:55.367Z,17.92
2022-09-20T11:26:43.140Z,18.09
2022-09-20T11:29:26.475Z,18.33
2022-09-20T11:32:00.526Z,18.34
2022-09-20T11:34:32.299Z,18.42
2022-09-20T11:37:03.315Z,18.52
2022-09-20T11:39:56.407Z,18.49
2022-09-20T11:42:30.233Z,17.76
2022-09-20T11:44:57.672Z,17.53
2022-09-20T11:47:53.328Z,17.68
2022-09-20T11:51:16.057Z,18.15
2022-09-20T11:54:28.354Z,18.64
2022-09-20T11:56:57.636Z,18.43
2022-09-20T11:59:37.506Z,18.30
2022-09-20T12:02:18.583Z,18.02
2022-09-20T12:04:46.467Z,18.01
2022-09-20T12:07:19.493Z,18.08
2022-09-20T12:09:54.795Z,18.51
2022-09-20T12:12:49.361Z,18.92
2022-09-20T12:15:42.540Z,18.95
2022-09-20T12:18:28.500Z,18.47
2022-09-20T12:21:01.460Z,18.22
2022-09-20T12:24:04.790Z,18.18
2022-09-20T12:26:41.096Z,18.22
2022-09-20T12:30:06.618Z,18.16
2022-09-20T12:33:01.263Z,17.59
2022-09-20T12:36:12.985Z,17.22
2022-09-20T12:38:48.303Z,17.52
2022-09-20T12:41:27.948Z,18.26
2022-09-20T12:43:59.717Z,18.63
2022-09-20T12:46:36.292Z,18.55
2022-09-20T12:50:24.410Z,18.53
2022-09-20T12:52:58.310Z,18.72
2022-09-20T12:55:55.139Z,18.77
2022-09-20T12:58:55.494Z,18.47
2022-09-20T13:01:35.120Z,18.61
2022-09-20T13:04:40.814Z,18.55
2022-09-20T13:07:35.029Z,18.71
2022-09-20T13:10:06.778Z,18.86
2022-09-20T13:12:50.395Z,19.02
2022-09-20T13:15:21.996Z,18.88
2022-09-20T13:17:52.991Z,18.59
2022-09-20T13:20:22.666Z,18.74
2022-09-20T13:22:50.255Z,18.62
2022-09-20T13:25:21.517Z,18.69
2022-09-20T13:28:09.419Z,18.65
2022-09-20T13:30:36.831Z,18.88
2022-09-20T13:33:25.710Z,19.00
2022-09-20T13:35:58.787Z,19.04
2022-09-20T13:38:32.020Z,19.04
2022-09-20T13:41:09.287Z,18.89
2022-09-20T13:43:44.675Z,19.00
2022-09-20T13:46:29.173Z,19.17
2022-09-20T13:49:23.895Z,19.12
2022-09-20T13:51:51.396Z,19.21
2022-09-20T13:54:32.930Z,19.15
2022-09-20T13:57:06.861Z,19.18
2022-09-20T13:59:40.757Z,19.35
2022-09-20T14:02:22.661Z,19.58
2022-09-20T14:04:54.714Z,19.65
2022-09-20T14:07:25.949Z,19.52
2022-09-20T14:09:54.287Z,19.49
2022-09-20T14:12:24.186Z,19.74
2022-09-20T14:14:51.838Z,19.71
2022-09-20T14:17:21.979Z,19.95
2022-09-20T14:19:52.061Z,20.27
2022-09-20T14:22:23.358Z,20.72
2022-09-20T14:25:18.796Z,21.19
2022-09-20T14:27:45.862Z,21.20
2022-09-20T14:30:39.048Z,20.77
2022-09-20T14:33:12.784Z,20.58
2022-09-20T14:35:48.107Z,20.75
2022-09-20T14:38:16.467Z,20.56
2022-09-20T14:40:48.254Z,20.60
2022-09-20T14:43:45.860Z,20.42
2022-09-20T14:46:18.753Z,20.39
2022-09-20T14:48:45.743Z,20.18
2022-09-20T14:51:30.832Z,20.03
2022-09-20T14:54:25.666Z,19.87
2022-09-20T14:56:57.746Z,19.76
2022-09-20T14:59:27.115Z,19.63
2022-09-20T15:01:57.952Z,20.03
2022-09-20T15:04:27.986Z,20.26
2022-09-20T15:06:57.183Z,21.20
2022-09-20T15:09:24.406Z,22.42
2022-09-20T15:12:02.254Z,23.47
2022-09-20T15:14:31.797Z,24.03
2022-09-20T15:17:00.939Z,24.30
2022-09-20T15:19:28.184Z,23.88
2022-09-20T15:21:55.107Z,23.67
2022-09-20T15:24:22.014Z,24.04
2022-09-20T15:26:49.310Z,24.73
2022-09-20T15:29:20.076Z,25.22
2022-09-20T15:31:48.027Z,24.63
2022-09-20T15:34:16.314Z,24.62
2022-09-20T15:36:43.538Z,24.17
2022-09-20T15:39:11.356Z,23.96
2022-09-20T15:41:38.433Z,24.47
2022-09-20T15:44:05.604Z,24.47
2022-09-20T15:46:32.983Z,24.49
2022-09-20T15:49:02.726Z,24.55
2022-09-20T15:51:30.693Z,24.97
2022-09-20T15:54:06.476Z,24.98
2022-09-20T15:56:36.146Z,24.84
2022-09-20T15:59:05.947Z,24.53
2022-09-20T16:01:43.387Z,24.31
2022-09-20T16:04:15.135Z,24.07
2022-09-20T16:06:43.725Z,23.95
2022-09-20T16:09:11.214Z,23.38
2022-09-20T16:11:39.175Z,23.11
2022-09-20T16:14:06.641Z,22.85
2022-09-20T16:16:39.652Z,22.62
2022-09-20T16:19:20.294Z,21.85
2022-09-20T16:21:53.742Z,20.81
2022-09-20T16:24:32.102Z,19.98
2022-09-20T16:27:01.315Z,19.26
2022-09-20T16:29:30.160Z,18.83
2022-09-20T16:31:58.683Z,18.56
2022-09-20T16:34:31.462Z,18.07
2022-09-20T16:37:08.070Z,17.76
2022-09-20T16:39:35.014Z,17.31
2022-09-20T16:42:05.134Z,16.95
2022-09-20T16:44:33.429Z,16.88
2022-09-20T16:47:00.786Z,16.29
2022-09-20T16:49:28.955Z,16.01
2022-09-20T16:51:56.393Z,15.77
2022-09-20T16:54:23.504Z,15.63
2022-09-20T16:56:51.144Z,15.50
2022-09-20T16:59:21.556Z,15.35
2022-09-20T17:01:49.649Z,15.25
2022-09-20T17:04:18.581Z,15.17
2022-09-20T17:06:46.139Z,15.15
2022-09-20T17:09:14.458Z,14.83
2022-09-20T17:11:47.318Z,14.73
2022-09-20T17:14:17.083Z,14.59
2022-09-20T17:16:47.681Z,14.46
2022-09-20T17:19:16.685Z,14.23
2022-09-20T17:21:50.227Z,14.18
2022-09-20T17:24:19.841Z,14.03
2022-09-20T17:26:46.943Z,14.10
2022-09-20T17:29:17.081Z,13.99
2022-09-20T17:31:55.237Z,14.13
2022-09-20T17:34:23.670Z,13.76
2022-09-20T17:36:50.974Z,13.63
2022-09-20T17:39:18.738Z,13.54
2022-09-20T17:41:47.711Z,13.52
2022-09-20T17:44:15.505Z,13.51
2022-09-20T17:46:44.926Z,13.44
2022-09-20T17:49:16.812Z,13.36
2022-09-20T17:51:54.760Z,13.26
2022-09-20T17:54:23.497Z,13.19
2022-09-20T17:56:52.618Z,13.13
2022-09-20T17:59:20.434Z,13.04
2022-09-20T18:01:50.073Z,12.99
2022-09-20T18:04:17.790Z,12.92
2022-09-20T18:06:49.963Z,12.85
2022-09-20T18:09:19.810Z,12.84
2022-09-20T18:11:51.879Z,12.67
2022-09-20T18:14:23.771Z,12.54
2022-09-20T18:16:56.096Z,12.41
2022-09-20T18:19:23.195Z,12.35
2022-09-20T18:21:50.750Z,12.32
2022-09-20T18:24:17.694Z,12.26
2022-09-20T18:26:44.710Z,12.25
2022-09-20T18:29:18.068Z,12.25
2022-09-20T18:31:50.868Z,12.22
2022-09-20T18:34:22.960Z,12.17
2022-09-20T18:36:55.203Z,12.13
2022-09-20T18:39:27.201Z,12.07
2022-09-20T18:41:54.658Z,11.99
2022-09-20T18:44:22.522Z,11.97
2022-09-20T18:46:54.297Z,11.98
2022-09-20T18:49:21.827Z,11.97
2022-09-20T18:51:48.929Z,11.98
2022-09-20T18:54:16.601Z,12.01
2022-09-20T18:56:45.226Z,12.00
2022-09-20T18:59:20.741Z,11.97
2022-09-20T19:02:04.073Z,11.90
2022-09-20T19:05:20.551Z,11.84
2022-09-20T19:08:34.317Z,11.82
2022-09-20T19:11:08.005Z,11.81
2022-09-20T19:13:48.507Z,11.83
2022-09-20T19:16:30.892Z,11.85
2022-09-20T19:19:36.757Z,11.93
2022-09-20T19:22:21.563Z,11.91
2022-09-20T19:25:24.151Z,11.92
2022-09-20T19:27:52.556Z,11.90
2022-09-20T19:30:20.307Z,11.87
2022-09-20T19:32:48.173Z,11.82
2022-09-20T19:35:20.503Z,11.75
2022-09-20T19:38:23.146Z,11.62
2022-09-20T19:41:21.673Z,11.43
2022-09-20T19:44:39.422Z,11.38
2022-09-20T19:47:55.810Z,11.36
2022-09-20T19:51:00.190Z,11.41
2022-09-20T19:53:28.225Z,11.42
2022-09-20T19:55:59.726Z,11.44
2022-09-20T19:58:27.244Z,11.47
2022-09-20T20:00:54.428Z,11.53
2022-09-20T20:03:23.917Z,11.57
2022-09-20T20:06:28.999Z,11.55
2022-09-20T20:09:10.802Z,11.50
2022-09-20T20:12:33.577Z,11.44
2022-09-20T20:15:20.024Z,11.38
2022-09-20T20:18:16.680Z,11.17
2022-09-20T20:20:50.091Z,11.05
2022-09-20T20:23:43.634Z,11.01
2022-09-20T20:26:21.936Z,11.00
2022-09-20T20:28:51.897Z,10.97
2022-09-20T20:31:19.817Z,10.89
2022-09-20T20:33:46.827Z,10.82
2022-09-20T20:36:13.841Z,10.82
2022-09-20T20:38:42.019Z,10.80
2022-09-20T20:41:11.475Z,10.75
2022-09-20T20:43:41.011Z,10.71
2022-09-20T20:46:14.399Z,10.68
2022-09-20T20:48:42.141Z,10.68
2022-09-20T20:51:14.069Z,10.66
2022-09-20T20:53:47.207Z,10.64
2022-09-20T20:56:19.121Z,10.62
2022-09-20T20:58:47.557Z,10.58
2022-09-20T21:01:31.594Z,10.48
2022-09-20T21:03:59.521Z,10.38
2022-09-20T21:06:28.865Z,10.31
2022-09-20T21:08:56.218Z,10.26
2022-09-20T21:11:25.090Z,10.23
2022-09-20T21:13:53.399Z,10.22
2022-09-20T21:16:23.291Z,10.26
2022-09-20T21:18:51.533Z,10.25
2022-09-20T21:21:30.336Z,10.25
2022-09-20T21:23:59.176Z,10.21
2022-09-20T21:26:27.889Z,10.18
2022-09-20T21:28:59.220Z,10.16
2022-09-20T21:31:27.728Z,10.11
2022-09-20T21:33:55.189Z,10.08
2022-09-20T21:36:24.525Z,10.06
2022-09-20T21:38:51.407Z,10.01
2022-09-20T21:41:32.290Z,10.09
2022-09-20T21:44:02.665Z,10.04
2022-09-20T21:46:40.820Z,10.05
2022-09-20T21:49:09.612Z,10.09
2022-09-20T21:51:37.595Z,10.11
2022-09-20T21:54:05.735Z,10.10
2022-09-20T21:56:35.244Z,10.08
2022-09-20T21:59:03.993Z,10.01
2022-09-20T22:01:36.342Z,9.99
2022-09-20T22:04:08.962Z,10.03
2022-09-20T22:06:38.826Z,10.10
2022-09-20T22:09:08.609Z,10.19
2022-09-20T22:11:39.431Z,10.19
2022-09-20T22:14:07.350Z,10.24
2022-09-20T22:16:38.102Z,10.27
2022-09-20T22:19:07.169Z,10.25
2022-09-20T22:21:41.654Z,10.15
2022-09-20T22:24:10.682Z,10.11
2022-09-20T22:26:40.498Z,10.08
2022-09-20T22:29:07.808Z,9.89
2022-09-20T22:31:37.191Z,9.81
2022-09-20T22:34:06.367Z,9.79
2022-09-20T22:36:39.037Z,9.77
2022-09-20T22:39:08.180Z,9.73
2022-09-20T22:41:36.353Z,9.70
2022-09-20T22:44:04.884Z,9.63
2022-09-20T22:46:32.881Z,9.60
2022-09-20T22:48:59.904Z,9.60
2022-09-20T22:51:29.680Z,9.60
2022-09-20T22:53:56.645Z,9.58
2022-09-20T22:56:25.982Z,9.59
2022-09-20T22:58:57.608Z,9.61
2022-09-20T23:01:27.111Z,9.60
2022-09-20T23:04:04.635Z,9.59
2022-09-20T23:06:49.392Z,9.68
2022-09-20T23:09:18.245Z,9.54
2022-09-20T23:11:46.096Z,9.82
2022-09-20T23:14:15.318Z,9.83
2022-09-20T23:16:42.810Z,9.70
2022-09-20T23:19:12.641Z,9.61
2022-09-20T23:21:40.986Z,9.55
2022-09-20T23:24:10.262Z,9.52
2022-09-20T23:26:39.066Z,9.54
2022-09-20T23:29:12.137Z,9.56
2022-09-20T23:31:40.879Z,9.58
2022-09-20T23:34:08.969Z,9.61
2022-09-20T23:36:38.477Z,9.61
2022-09-20T23:39:07.180Z,9.62
2022-09-20T23:41:34.702Z,9.62
2022-09-20T23:44:01.956Z,9.58
2022-09-20T23:46:28.888Z,9.56
2022-09-20T23:48:55.869Z,9.55
2022-09-20T23:51:25.152Z,9.51
2022-09-20T23:53:53.476Z,9.50
2022-09-20T23:56:21.634Z,9.49
2022-09-20T23:58:48.931Z,9.51
